sensor_id;sensor_type;location;lat;lon;timestamp;P1;durP1;ratioP1;P2;durP2;ratioP2
59504;SDS011;45321;53.200;5.814;2023-04-03T00:00:28;17.63;;;10.90;;
59504;SDS011;45321;53.200;5.814;2023-04-03T00:02:55;12.15;;;8.02;;
59504;SDS011;45321;53.200;5.814;2023-04-03T00:05:21;16.58;;;10.15;;
59504;SDS011;45321;53.200;5.814;2023-04-03T00:07:46;19.38;;;12.10;;
59504;SDS011;45321;53.200;5.814;2023-04-03T00:10:12;10.65;;;6.88;;
59504;SDS011;45321;53.200;5.814;2023-04-03T00:12:38;16.10;;;10.52;;
59504;SDS011;45321;53.200;5.814;2023-04-03T00:15:04;15.15;;;8.30;;
59504;SDS011;45321;53.200;5.814;2023-04-03T00:17:30;16.52;;;8.02;;
59504;SDS011;45321;53.200;5.814;2023-04-03T00:19:58;20.67;;;11.07;;
59504;SDS011;45321;53.200;5.814;2023-04-03T00:22:24;10.80;;;6.53;;
59504;SDS011;45321;53.200;5.814;2023-04-03T00:24:51;13.48;;;8.13;;
59504;SDS011;45321;53.200;5.814;2023-04-03T00:27:17;5.65;;;3.35;;
59504;SDS011;45321;53.200;5.814;2023-04-03T00:29:43;4.57;;;1.77;;
59504;SDS011;45321;53.200;5.814;2023-04-03T00:32:08;4.35;;;2.45;;
59504;SDS011;45321;53.200;5.814;2023-04-03T00:34:35;4.55;;;2.50;;
59504;SDS011;45321;53.200;5.814;2023-04-03T00:37:00;3.90;;;1.70;;
59504;SDS011;45321;53.200;5.814;2023-04-03T00:39:26;5.85;;;2.72;;
59504;SDS011;45321;53.200;5.814;2023-04-03T00:41:52;3.55;;;2.00;;
59504;SDS011;45321;53.200;5.814;2023-04-03T00:46:59;5.35;;;3.30;;
59504;SDS011;45321;53.200;5.814;2023-04-03T00:49:25;5.57;;;2.30;;
59504;SDS011;45321;53.200;5.814;2023-04-03T00:51:52;5.88;;;3.20;;
59504;SDS011;45321;53.200;5.814;2023-04-03T00:54:18;7.65;;;3.85;;
59504;SDS011;45321;53.200;5.814;2023-04-03T00:56:44;4.72;;;2.15;;
59504;SDS011;45321;53.200;5.814;2023-04-03T00:59:12;5.50;;;2.65;;
59504;SDS011;45321;53.200;5.814;2023-04-03T01:01:42;5.88;;;2.58;;
59504;SDS011;45321;53.200;5.814;2023-04-03T01:04:26;8.13;;;4.05;;
59504;SDS011;45321;53.200;5.814;2023-04-03T01:06:53;6.25;;;2.85;;
59504;SDS011;45321;53.200;5.814;2023-04-03T01:09:21;5.07;;;2.38;;
59504;SDS011;45321;53.200;5.814;2023-04-03T01:11:47;5.43;;;2.13;;
59504;SDS011;45321;53.200;5.814;2023-04-03T01:14:13;7.32;;;3.83;;
59504;SDS011;45321;53.200;5.814;2023-04-03T01:16:39;7.60;;;3.80;;
59504;SDS011;45321;53.200;5.814;2023-04-03T01:19:05;9.63;;;4.47;;
59504;SDS011;45321;53.200;5.814;2023-04-03T01:21:44;12.55;;;7.88;;
59504;SDS011;45321;53.200;5.814;2023-04-03T01:24:32;13.20;;;7.88;;
59504;SDS011;45321;53.200;5.814;2023-04-03T01:26:58;19.77;;;11.23;;
59504;SDS011;45321;53.200;5.814;2023-04-03T01:29:26;17.63;;;9.85;;
59504;SDS011;45321;53.200;5.814;2023-04-03T01:31:59;24.80;;;14.27;;
59504;SDS011;45321;53.200;5.814;2023-04-03T01:34:27;16.45;;;9.52;;
59504;SDS011;45321;53.200;5.814;2023-04-03T01:36:54;18.20;;;9.75;;
59504;SDS011;45321;53.200;5.814;2023-04-03T01:39:20;11.95;;;7.40;;
59504;SDS011;45321;53.200;5.814;2023-04-03T01:41:46;21.13;;;10.90;;
59504;SDS011;45321;53.200;5.814;2023-04-03T01:44:12;19.55;;;10.75;;
59504;SDS011;45321;53.200;5.814;2023-04-03T01:46:38;18.40;;;9.48;;
59504;SDS011;45321;53.200;5.814;2023-04-03T01:49:03;16.98;;;8.88;;
59504;SDS011;45321;53.200;5.814;2023-04-03T01:51:29;14.52;;;8.77;;
59504;SDS011;45321;53.200;5.814;2023-04-03T01:53:55;18.38;;;11.10;;
59504;SDS011;45321;53.200;5.814;2023-04-03T01:56:21;13.27;;;7.50;;
59504;SDS011;45321;53.200;5.814;2023-04-03T01:58:47;15.70;;;9.93;;
59504;SDS011;45321;53.200;5.814;2023-04-03T02:01:13;15.30;;;9.15;;
59504;SDS011;45321;53.200;5.814;2023-04-03T02:03:40;14.98;;;9.13;;
59504;SDS011;45321;53.200;5.814;2023-04-03T02:06:05;12.52;;;7.00;;
59504;SDS011;45321;53.200;5.814;2023-04-03T02:08:31;12.30;;;6.57;;
59504;SDS011;45321;53.200;5.814;2023-04-03T02:10:57;18.65;;;9.50;;
59504;SDS011;45321;53.200;5.814;2023-04-03T02:13:23;12.27;;;7.15;;
59504;SDS011;45321;53.200;5.814;2023-04-03T02:15:49;17.75;;;10.93;;
59504;SDS011;45321;53.200;5.814;2023-04-03T02:18:14;19.02;;;10.25;;
59504;SDS011;45321;53.200;5.814;2023-04-03T02:20:40;16.85;;;8.80;;
59504;SDS011;45321;53.200;5.814;2023-04-03T02:23:06;15.18;;;8.60;;
59504;SDS011;45321;53.200;5.814;2023-04-03T02:25:32;18.23;;;9.82;;
59504;SDS011;45321;53.200;5.814;2023-04-03T02:27:58;14.15;;;8.40;;
59504;SDS011;45321;53.200;5.814;2023-04-03T02:30:24;12.43;;;7.15;;
59504;SDS011;45321;53.200;5.814;2023-04-03T02:32:53;16.83;;;9.10;;
59504;SDS011;45321;53.200;5.814;2023-04-03T02:35:19;14.23;;;8.65;;
59504;SDS011;45321;53.200;5.814;2023-04-03T02:37:45;12.60;;;5.90;;
59504;SDS011;45321;53.200;5.814;2023-04-03T02:40:11;12.32;;;7.47;;
59504;SDS011;45321;53.200;5.814;2023-04-03T02:42:36;13.23;;;6.15;;
59504;SDS011;45321;53.200;5.814;2023-04-03T02:45:02;15.30;;;9.13;;
59504;SDS011;45321;53.200;5.814;2023-04-03T02:47:28;16.70;;;7.63;;
59504;SDS011;45321;53.200;5.814;2023-04-03T02:49:54;14.38;;;7.72;;
59504;SDS011;45321;53.200;5.814;2023-04-03T02:52:20;10.30;;;6.55;;
59504;SDS011;45321;53.200;5.814;2023-04-03T02:54:46;19.50;;;11.15;;
59504;SDS011;45321;53.200;5.814;2023-04-03T02:57:12;16.08;;;8.80;;
59504;SDS011;45321;53.200;5.814;2023-04-03T02:59:38;10.95;;;5.05;;
59504;SDS011;45321;53.200;5.814;2023-04-03T03:02:09;14.80;;;8.32;;
59504;SDS011;45321;53.200;5.814;2023-04-03T03:04:36;15.95;;;9.40;;
59504;SDS011;45321;53.200;5.814;2023-04-03T03:07:02;24.80;;;14.00;;
59504;SDS011;45321;53.200;5.814;2023-04-03T03:09:29;17.77;;;10.38;;
59504;SDS011;45321;53.200;5.814;2023-04-03T03:11:55;17.08;;;9.50;;
59504;SDS011;45321;53.200;5.814;2023-04-03T03:14:21;18.08;;;9.52;;
59504;SDS011;45321;53.200;5.814;2023-04-03T03:16:47;15.23;;;8.52;;
59504;SDS011;45321;53.200;5.814;2023-04-03T03:19:13;15.50;;;8.52;;
59504;SDS011;45321;53.200;5.814;2023-04-03T03:21:39;22.27;;;10.98;;
59504;SDS011;45321;53.200;5.814;2023-04-03T03:24:05;17.50;;;10.20;;
59504;SDS011;45321;53.200;5.814;2023-04-03T03:26:31;19.27;;;10.98;;
59504;SDS011;45321;53.200;5.814;2023-04-03T03:28:57;17.80;;;8.90;;
59504;SDS011;45321;53.200;5.814;2023-04-03T03:31:23;20.40;;;9.50;;
59504;SDS011;45321;53.200;5.814;2023-04-03T03:33:48;19.95;;;11.23;;
59504;SDS011;45321;53.200;5.814;2023-04-03T03:36:14;18.40;;;11.00;;
59504;SDS011;45321;53.200;5.814;2023-04-03T03:38:40;17.75;;;9.27;;
59504;SDS011;45321;53.200;5.814;2023-04-03T03:41:06;18.13;;;9.85;;
59504;SDS011;45321;53.200;5.814;2023-04-03T03:43:31;17.90;;;9.77;;
59504;SDS011;45321;53.200;5.814;2023-04-03T03:45:57;22.90;;;12.32;;
59504;SDS011;45321;53.200;5.814;2023-04-03T03:48:23;16.67;;;7.90;;
59504;SDS011;45321;53.200;5.814;2023-04-03T03:50:49;20.17;;;11.00;;
59504;SDS011;45321;53.200;5.814;2023-04-03T03:53:15;24.95;;;14.65;;
59504;SDS011;45321;53.200;5.814;2023-04-03T03:55:41;25.27;;;12.93;;
59504;SDS011;45321;53.200;5.814;2023-04-03T03:58:07;24.42;;;12.30;;
59504;SDS011;45321;53.200;5.814;2023-04-03T04:00:33;15.52;;;7.70;;
59504;SDS011;45321;53.200;5.814;2023-04-03T04:02:58;23.35;;;11.02;;
59504;SDS011;45321;53.200;5.814;2023-04-03T04:05:25;19.60;;;10.20;;
59504;SDS011;45321;53.200;5.814;2023-04-03T04:07:51;21.25;;;11.63;;
59504;SDS011;45321;53.200;5.814;2023-04-03T04:10:16;22.17;;;12.60;;
59504;SDS011;45321;53.200;5.814;2023-04-03T04:12:42;31.38;;;16.30;;
59504;SDS011;45321;53.200;5.814;2023-04-03T04:15:08;16.80;;;8.00;;
59504;SDS011;45321;53.200;5.814;2023-04-03T04:17:35;19.52;;;9.85;;
59504;SDS011;45321;53.200;5.814;2023-04-03T04:20:02;21.00;;;11.27;;
59504;SDS011;45321;53.200;5.814;2023-04-03T04:22:30;17.98;;;9.68;;
59504;SDS011;45321;53.200;5.814;2023-04-03T04:24:55;26.95;;;15.60;;
59504;SDS011;45321;53.200;5.814;2023-04-03T04:27:21;23.75;;;12.70;;
59504;SDS011;45321;53.200;5.814;2023-04-03T04:29:47;28.38;;;14.00;;
59504;SDS011;45321;53.200;5.814;2023-04-03T04:32:12;30.60;;;15.82;;
59504;SDS011;45321;53.200;5.814;2023-04-03T04:34:38;29.13;;;15.07;;
59504;SDS011;45321;53.200;5.814;2023-04-03T04:37:07;25.58;;;12.88;;
59504;SDS011;45321;53.200;5.814;2023-04-03T04:39:32;15.95;;;9.18;;
59504;SDS011;45321;53.200;5.814;2023-04-03T04:41:58;26.10;;;12.82;;
59504;SDS011;45321;53.200;5.814;2023-04-03T04:44:24;10.90;;;5.50;;
59504;SDS011;45321;53.200;5.814;2023-04-03T04:46:50;12.88;;;5.97;;
59504;SDS011;45321;53.200;5.814;2023-04-03T04:49:15;20.15;;;10.52;;
59504;SDS011;45321;53.200;5.814;2023-04-03T04:51:41;17.50;;;9.55;;
59504;SDS011;45321;53.200;5.814;2023-04-03T04:54:09;24.70;;;11.45;;
59504;SDS011;45321;53.200;5.814;2023-04-03T04:56:35;23.65;;;12.80;;
59504;SDS011;45321;53.200;5.814;2023-04-03T04:59:01;24.40;;;13.43;;
59504;SDS011;45321;53.200;5.814;2023-04-03T05:01:26;11.35;;;6.03;;
59504;SDS011;45321;53.200;5.814;2023-04-03T05:03:52;16.60;;;8.25;;
59504;SDS011;45321;53.200;5.814;2023-04-03T05:06:18;19.48;;;9.13;;
59504;SDS011;45321;53.200;5.814;2023-04-03T05:08:44;24.58;;;11.70;;
59504;SDS011;45321;53.200;5.814;2023-04-03T05:11:10;23.25;;;9.32;;
59504;SDS011;45321;53.200;5.814;2023-04-03T05:13:35;16.35;;;8.93;;
59504;SDS011;45321;53.200;5.814;2023-04-03T05:16:01;14.93;;;7.32;;
59504;SDS011;45321;53.200;5.814;2023-04-03T05:18:27;17.00;;;6.85;;
59504;SDS011;45321;53.200;5.814;2023-04-03T05:20:52;9.77;;;3.58;;
59504;SDS011;45321;53.200;5.814;2023-04-03T05:23:21;15.38;;;7.97;;
59504;SDS011;45321;53.200;5.814;2023-04-03T05:25:47;17.20;;;6.88;;
59504;SDS011;45321;53.200;5.814;2023-04-03T05:28:13;10.57;;;5.07;;
59504;SDS011;45321;53.200;5.814;2023-04-03T05:30:39;15.32;;;7.53;;
59504;SDS011;45321;53.200;5.814;2023-04-03T05:33:05;13.65;;;6.35;;
59504;SDS011;45321;53.200;5.814;2023-04-03T05:35:31;11.65;;;6.30;;
59504;SDS011;45321;53.200;5.814;2023-04-03T05:37:57;21.15;;;9.27;;
59504;SDS011;45321;53.200;5.814;2023-04-03T05:40:23;10.45;;;5.13;;
59504;SDS011;45321;53.200;5.814;2023-04-03T05:42:48;10.55;;;4.70;;
59504;SDS011;45321;53.200;5.814;2023-04-03T05:45:14;13.27;;;4.55;;
59504;SDS011;45321;53.200;5.814;2023-04-03T05:47:40;14.23;;;6.90;;
59504;SDS011;45321;53.200;5.814;2023-04-03T05:50:06;10.57;;;5.05;;
59504;SDS011;45321;53.200;5.814;2023-04-03T05:52:33;10.65;;;4.72;;
59504;SDS011;45321;53.200;5.814;2023-04-03T05:55:02;11.27;;;5.60;;
59504;SDS011;45321;53.200;5.814;2023-04-03T05:57:28;10.98;;;6.55;;
59504;SDS011;45321;53.200;5.814;2023-04-03T05:59:56;13.95;;;6.97;;
59504;SDS011;45321;53.200;5.814;2023-04-03T06:02:23;11.30;;;5.07;;
59504;SDS011;45321;53.200;5.814;2023-04-03T06:04:50;11.93;;;4.78;;
59504;SDS011;45321;53.200;5.814;2023-04-03T06:07:17;19.48;;;8.52;;
59504;SDS011;45321;53.200;5.814;2023-04-03T06:09:47;23.30;;;10.63;;
59504;SDS011;45321;53.200;5.814;2023-04-03T06:12:14;17.95;;;7.55;;
59504;SDS011;45321;53.200;5.814;2023-04-03T06:14:40;21.27;;;9.68;;
59504;SDS011;45321;53.200;5.814;2023-04-03T06:17:06;8.98;;;4.25;;
59504;SDS011;45321;53.200;5.814;2023-04-03T06:19:34;15.68;;;8.50;;
59504;SDS011;45321;53.200;5.814;2023-04-03T06:22:00;19.83;;;9.20;;
59504;SDS011;45321;53.200;5.814;2023-04-03T06:24:26;17.15;;;7.70;;
59504;SDS011;45321;53.200;5.814;2023-04-03T06:26:52;18.88;;;9.82;;
59504;SDS011;45321;53.200;5.814;2023-04-03T06:29:18;18.80;;;7.28;;
59504;SDS011;45321;53.200;5.814;2023-04-03T06:31:45;16.13;;;7.70;;
59504;SDS011;45321;53.200;5.814;2023-04-03T06:34:11;15.55;;;7.85;;
59504;SDS011;45321;53.200;5.814;2023-04-03T06:36:37;16.52;;;7.22;;
59504;SDS011;45321;53.200;5.814;2023-04-03T06:39:03;12.35;;;5.60;;
59504;SDS011;45321;53.200;5.814;2023-04-03T06:41:30;12.75;;;4.78;;
59504;SDS011;45321;53.200;5.814;2023-04-03T06:43:56;13.05;;;6.22;;
59504;SDS011;45321;53.200;5.814;2023-04-03T06:46:23;17.65;;;7.82;;
59504;SDS011;45321;53.200;5.814;2023-04-03T06:48:50;15.25;;;5.47;;
59504;SDS011;45321;53.200;5.814;2023-04-03T06:51:18;12.38;;;3.85;;
59504;SDS011;45321;53.200;5.814;2023-04-03T06:53:48;14.07;;;6.70;;
59504;SDS011;45321;53.200;5.814;2023-04-03T06:56:16;11.02;;;3.92;;
59504;SDS011;45321;53.200;5.814;2023-04-03T06:58:42;13.48;;;6.03;;
59504;SDS011;45321;53.200;5.814;2023-04-03T07:01:09;9.65;;;3.22;;
59504;SDS011;45321;53.200;5.814;2023-04-03T07:03:37;10.80;;;5.50;;
59504;SDS011;45321;53.200;5.814;2023-04-03T07:06:03;12.35;;;4.90;;
59504;SDS011;45321;53.200;5.814;2023-04-03T07:08:31;17.60;;;7.65;;
59504;SDS011;45321;53.200;5.814;2023-04-03T07:10:56;10.18;;;5.22;;
59504;SDS011;45321;53.200;5.814;2023-04-03T07:13:22;9.18;;;3.03;;
59504;SDS011;45321;53.200;5.814;2023-04-03T07:15:48;6.85;;;3.45;;
59504;SDS011;45321;53.200;5.814;2023-04-03T07:18:14;10.32;;;4.13;;
59504;SDS011;45321;53.200;5.814;2023-04-03T07:20:40;9.52;;;4.03;;
59504;SDS011;45321;53.200;5.814;2023-04-03T07:23:06;6.47;;;2.28;;
59504;SDS011;45321;53.200;5.814;2023-04-03T07:25:32;9.80;;;3.60;;
59504;SDS011;45321;53.200;5.814;2023-04-03T07:27:58;4.70;;;2.50;;
59504;SDS011;45321;53.200;5.814;2023-04-03T07:30:24;8.90;;;3.25;;
59504;SDS011;45321;53.200;5.814;2023-04-03T07:32:51;8.63;;;4.30;;
59504;SDS011;45321;53.200;5.814;2023-04-03T07:35:17;5.97;;;2.33;;
59504;SDS011;45321;53.200;5.814;2023-04-03T07:37:44;5.93;;;2.17;;
59504;SDS011;45321;53.200;5.814;2023-04-03T07:40:10;6.05;;;2.17;;
59504;SDS011;45321;53.200;5.814;2023-04-03T07:42:35;7.78;;;3.05;;
59504;SDS011;45321;53.200;5.814;2023-04-03T07:45:02;6.65;;;2.55;;
59504;SDS011;45321;53.200;5.814;2023-04-03T07:47:29;6.75;;;2.50;;
59504;SDS011;45321;53.200;5.814;2023-04-03T07:49:56;7.05;;;2.47;;
59504;SDS011;45321;53.200;5.814;2023-04-03T07:52:22;6.28;;;1.98;;
59504;SDS011;45321;53.200;5.814;2023-04-03T07:54:48;6.82;;;2.40;;
59504;SDS011;45321;53.200;5.814;2023-04-03T07:57:14;6.35;;;2.33;;
59504;SDS011;45321;53.200;5.814;2023-04-03T07:59:40;5.47;;;2.10;;
59504;SDS011;45321;53.200;5.814;2023-04-03T08:02:11;5.53;;;1.88;;
59504;SDS011;45321;53.200;5.814;2023-04-03T08:04:38;6.43;;;2.28;;
59504;SDS011;45321;53.200;5.814;2023-04-03T08:07:04;5.68;;;2.08;;
59504;SDS011;45321;53.200;5.814;2023-04-03T08:09:30;4.63;;;2.05;;
59504;SDS011;45321;53.200;5.814;2023-04-03T08:11:57;5.10;;;1.95;;
59504;SDS011;45321;53.200;5.814;2023-04-03T08:14:23;8.60;;;2.30;;
59504;SDS011;45321;53.200;5.814;2023-04-03T08:16:50;4.22;;;1.80;;
59504;SDS011;45321;53.200;5.814;2023-04-03T08:19:16;10.32;;;1.80;;
59504;SDS011;45321;53.200;5.814;2023-04-03T08:21:43;6.28;;;2.47;;
59504;SDS011;45321;53.200;5.814;2023-04-03T08:24:10;8.25;;;3.63;;
59504;SDS011;45321;53.200;5.814;2023-04-03T08:26:37;7.50;;;3.20;;
59504;SDS011;45321;53.200;5.814;2023-04-03T08:29:03;3.13;;;2.05;;
59504;SDS011;45321;53.200;5.814;2023-04-03T08:31:29;9.35;;;3.58;;
59504;SDS011;45321;53.200;5.814;2023-04-03T08:33:56;6.90;;;2.50;;
59504;SDS011;45321;53.200;5.814;2023-04-03T08:36:24;5.93;;;2.08;;
59504;SDS011;45321;53.200;5.814;2023-04-03T08:38:52;9.75;;;2.33;;
59504;SDS011;45321;53.200;5.814;2023-04-03T08:52:19;7.03;;;2.45;;
59504;SDS011;45321;53.200;5.814;2023-04-03T08:55:00;6.20;;;2.42;;
59504;SDS011;45321;53.200;5.814;2023-04-03T08:57:41;8.88;;;3.40;;
59504;SDS011;45321;53.200;5.814;2023-04-03T09:00:16;5.55;;;1.50;;
59504;SDS011;45321;53.200;5.814;2023-04-03T09:02:49;7.22;;;2.15;;
59504;SDS011;45321;53.200;5.814;2023-04-03T09:08:42;3.30;;;1.23;;
59504;SDS011;45321;53.200;5.814;2023-04-03T09:10:43;5.18;;;1.25;;
59504;SDS011;45321;53.200;5.814;2023-04-03T09:15:55;4.20;;;1.10;;
59504;SDS011;45321;53.200;5.814;2023-04-03T09:18:36;5.28;;;1.65;;
59504;SDS011;45321;53.200;5.814;2023-04-03T09:21:17;3.25;;;0.95;;
59504;SDS011;45321;53.200;5.814;2023-04-03T09:23:50;3.17;;;1.00;;
59504;SDS011;45321;53.200;5.814;2023-04-03T09:26:20;3.38;;;1.30;;
59504;SDS011;45321;53.200;5.814;2023-04-03T09:28:55;3.08;;;1.00;;
59504;SDS011;45321;53.200;5.814;2023-04-03T09:31:26;3.03;;;0.90;;
59504;SDS011;45321;53.200;5.814;2023-04-03T09:33:56;2.90;;;0.80;;
59504;SDS011;45321;53.200;5.814;2023-04-03T09:36:43;1.98;;;0.80;;
59504;SDS011;45321;53.200;5.814;2023-04-03T09:39:13;1.58;;;0.80;;
59504;SDS011;45321;53.200;5.814;2023-04-03T09:41:54;3.78;;;1.40;;
59504;SDS011;45321;53.200;5.814;2023-04-03T09:47:18;6.15;;;2.17;;
59504;SDS011;45321;53.200;5.814;2023-04-03T09:52:38;2.60;;;0.90;;
59504;SDS011;45321;53.200;5.814;2023-04-03T09:55:15;2.95;;;1.05;;
59504;SDS011;45321;53.200;5.814;2023-04-03T09:57:43;4.65;;;2.65;;
59504;SDS011;45321;53.200;5.814;2023-04-03T10:00:36;4.03;;;1.17;;
59504;SDS011;45321;53.200;5.814;2023-04-03T10:03:01;2.05;;;0.80;;
59504;SDS011;45321;53.200;5.814;2023-04-03T10:05:41;1.95;;;0.90;;
59504;SDS011;45321;53.200;5.814;2023-04-03T10:10:42;1.83;;;0.80;;
59504;SDS011;45321;53.200;5.814;2023-04-03T10:15:43;1.92;;;0.90;;
59504;SDS011;45321;53.200;5.814;2023-04-03T10:18:20;2.63;;;0.80;;
59504;SDS011;45321;53.200;5.814;2023-04-03T10:20:57;2.63;;;1.00;;
59504;SDS011;45321;53.200;5.814;2023-04-03T10:23:45;2.33;;;0.68;;
59504;SDS011;45321;53.200;5.814;2023-04-03T10:29:21;2.30;;;0.80;;
59504;SDS011;45321;53.200;5.814;2023-04-03T10:34:49;3.28;;;2.03;;
59504;SDS011;45321;53.200;5.814;2023-04-03T10:37:52;1.60;;;0.68;;
59504;SDS011;45321;53.200;5.814;2023-04-03T10:40:32;2.45;;;0.85;;
59504;SDS011;45321;53.200;5.814;2023-04-03T10:43:09;2.05;;;0.70;;
59504;SDS011;45321;53.200;5.814;2023-04-03T10:46:02;2.85;;;1.90;;
59504;SDS011;45321;53.200;5.814;2023-04-03T10:48:43;3.22;;;1.20;;
59504;SDS011;45321;53.200;5.814;2023-04-03T10:54:20;4.50;;;1.10;;
59504;SDS011;45321;53.200;5.814;2023-04-03T10:56:51;2.42;;;1.10;;
59504;SDS011;45321;53.200;5.814;2023-04-03T11:02:07;5.75;;;0.95;;
59504;SDS011;45321;53.200;5.814;2023-04-03T11:04:50;1.33;;;0.68;;
59504;SDS011;45321;53.200;5.814;2023-04-03T11:07:26;3.20;;;0.75;;
59504;SDS011;45321;53.200;5.814;2023-04-03T11:10:09;3.35;;;1.15;;
59504;SDS011;45321;53.200;5.814;2023-04-03T11:12:44;2.45;;;0.80;;
59504;SDS011;45321;53.200;5.814;2023-04-03T11:15:17;3.80;;;1.85;;
59504;SDS011;45321;53.200;5.814;2023-04-03T11:18:31;2.83;;;0.90;;
59504;SDS011;45321;53.200;5.814;2023-04-03T11:20:37;4.30;;;0.77;;
59504;SDS011;45321;53.200;5.814;2023-04-03T11:23:15;2.20;;;0.93;;
59504;SDS011;45321;53.200;5.814;2023-04-03T11:25:50;1.98;;;0.93;;
59504;SDS011;45321;53.200;5.814;2023-04-03T11:28:19;1.67;;;0.70;;
59504;SDS011;45321;53.200;5.814;2023-04-03T11:30:47;2.38;;;0.95;;
59504;SDS011;45321;53.200;5.814;2023-04-03T11:39:02;3.05;;;1.50;;
59504;SDS011;45321;53.200;5.814;2023-04-03T11:41:43;2.20;;;0.90;;
59504;SDS011;45321;53.200;5.814;2023-04-03T11:47:00;1.60;;;0.70;;
59504;SDS011;45321;53.200;5.814;2023-04-03T12:16:20;3.35;;;0.95;;
59504;SDS011;45321;53.200;5.814;2023-04-03T12:21:14;2.28;;;1.10;;
59504;SDS011;45321;53.200;5.814;2023-04-03T12:34:43;2.13;;;0.80;;
59504;SDS011;45321;53.200;5.814;2023-04-03T12:45:29;6.70;;;4.15;;
59504;SDS011;45321;53.200;5.814;2023-04-03T12:48:06;6.15;;;2.67;;
59504;SDS011;45321;53.200;5.814;2023-04-03T12:50:41;4.05;;;2.03;;
59504;SDS011;45321;53.200;5.814;2023-04-03T12:55:54;3.30;;;1.85;;
59504;SDS011;45321;53.200;5.814;2023-04-03T12:58:41;1.88;;;0.73;;
59504;SDS011;45321;53.200;5.814;2023-04-03T13:01:11;5.13;;;2.38;;
59504;SDS011;45321;53.200;5.814;2023-04-03T13:03:40;4.68;;;1.27;;
59504;SDS011;45321;53.200;5.814;2023-04-03T13:06:19;6.05;;;3.90;;
59504;SDS011;45321;53.200;5.814;2023-04-03T13:08:52;2.22;;;1.10;;
59504;SDS011;45321;53.200;5.814;2023-04-03T13:11:23;2.45;;;1.30;;
59504;SDS011;45321;53.200;5.814;2023-04-03T13:13:55;3.83;;;1.50;;
59504;SDS011;45321;53.200;5.814;2023-04-03T13:16:21;3.45;;;1.00;;
59504;SDS011;45321;53.200;5.814;2023-04-03T13:18:52;3.33;;;0.80;;
59504;SDS011;45321;53.200;5.814;2023-04-03T13:21:19;1.70;;;0.80;;
59504;SDS011;45321;53.200;5.814;2023-04-03T13:23:50;3.10;;;1.00;;
59504;SDS011;45321;53.200;5.814;2023-04-03T13:26:18;4.63;;;1.40;;
59504;SDS011;45321;53.200;5.814;2023-04-03T13:28:46;2.22;;;1.08;;
59504;SDS011;45321;53.200;5.814;2023-04-03T13:41:44;3.40;;;1.52;;
59504;SDS011;45321;53.200;5.814;2023-04-03T13:44:25;3.17;;;1.23;;
59504;SDS011;45321;53.200;5.814;2023-04-03T13:49:43;4.03;;;1.80;;
59504;SDS011;45321;53.200;5.814;2023-04-03T13:57:49;2.47;;;0.95;;
59504;SDS011;45321;53.200;5.814;2023-04-03T14:00:35;5.55;;;4.43;;
59504;SDS011;45321;53.200;5.814;2023-04-03T14:03:19;2.95;;;1.70;;
59504;SDS011;45321;53.200;5.814;2023-04-03T14:05:51;2.55;;;1.15;;
59504;SDS011;45321;53.200;5.814;2023-04-03T14:08:18;5.78;;;3.15;;
59504;SDS011;45321;53.200;5.814;2023-04-03T14:10:44;2.67;;;1.50;;
59504;SDS011;45321;53.200;5.814;2023-04-03T14:13:15;3.45;;;1.52;;
59504;SDS011;45321;53.200;5.814;2023-04-03T14:15:43;3.15;;;0.88;;
59504;SDS011;45321;53.200;5.814;2023-04-03T14:18:11;3.17;;;2.10;;
59504;SDS011;45321;53.200;5.814;2023-04-03T14:20:38;4.28;;;1.83;;
59504;SDS011;45321;53.200;5.814;2023-04-03T14:23:04;5.28;;;2.47;;
59504;SDS011;45321;53.200;5.814;2023-04-03T14:25:30;2.45;;;1.17;;
59504;SDS011;45321;53.200;5.814;2023-04-03T14:27:55;3.35;;;1.75;;
59504;SDS011;45321;53.200;5.814;2023-04-03T14:32:58;2.28;;;1.10;;
59504;SDS011;45321;53.200;5.814;2023-04-03T14:35:25;4.95;;;1.38;;
59504;SDS011;45321;53.200;5.814;2023-04-03T14:37:52;5.60;;;4.63;;
59504;SDS011;45321;53.200;5.814;2023-04-03T14:40:20;3.90;;;1.98;;
59504;SDS011;45321;53.200;5.814;2023-04-03T14:42:48;6.50;;;5.55;;
59504;SDS011;45321;53.200;5.814;2023-04-03T14:45:14;4.78;;;2.50;;
59504;SDS011;45321;53.200;5.814;2023-04-03T14:47:42;2.53;;;1.58;;
59504;SDS011;45321;53.200;5.814;2023-04-03T14:50:20;5.82;;;4.35;;
59504;SDS011;45321;53.200;5.814;2023-04-03T14:52:48;7.53;;;6.72;;
59504;SDS011;45321;53.200;5.814;2023-04-03T14:55:17;6.30;;;3.92;;
59504;SDS011;45321;53.200;5.814;2023-04-03T14:57:44;7.22;;;5.30;;
59504;SDS011;45321;53.200;5.814;2023-04-03T15:00:18;6.95;;;4.65;;
59504;SDS011;45321;53.200;5.814;2023-04-03T15:02:46;3.40;;;1.00;;
59504;SDS011;45321;53.200;5.814;2023-04-03T15:05:13;4.13;;;1.80;;
59504;SDS011;45321;53.200;5.814;2023-04-03T15:07:49;3.00;;;1.48;;
59504;SDS011;45321;53.200;5.814;2023-04-03T15:10:21;3.08;;;1.63;;
59504;SDS011;45321;53.200;5.814;2023-04-03T15:12:50;2.83;;;1.52;;
59504;SDS011;45321;53.200;5.814;2023-04-03T15:15:17;3.10;;;1.70;;
59504;SDS011;45321;53.200;5.814;2023-04-03T15:17:50;4.28;;;3.28;;
59504;SDS011;45321;53.200;5.814;2023-04-03T15:20:20;6.22;;;5.05;;
59504;SDS011;45321;53.200;5.814;2023-04-03T15:22:48;8.15;;;5.97;;
59504;SDS011;45321;53.200;5.814;2023-04-03T15:25:14;3.83;;;2.30;;
59504;SDS011;45321;53.200;5.814;2023-04-03T15:27:40;5.90;;;2.75;;
59504;SDS011;45321;53.200;5.814;2023-04-03T15:30:08;6.28;;;4.25;;
59504;SDS011;45321;53.200;5.814;2023-04-03T15:32:38;5.53;;;1.67;;
59504;SDS011;45321;53.200;5.814;2023-04-03T15:35:04;5.35;;;2.10;;
59504;SDS011;45321;53.200;5.814;2023-04-03T15:37:30;4.47;;;1.75;;
59504;SDS011;45321;53.200;5.814;2023-04-03T15:39:56;3.95;;;1.73;;
59504;SDS011;45321;53.200;5.814;2023-04-03T15:42:21;4.63;;;2.33;;
59504;SDS011;45321;53.200;5.814;2023-04-03T15:44:47;5.90;;;3.90;;
59504;SDS011;45321;53.200;5.814;2023-04-03T15:47:13;4.32;;;2.67;;
59504;SDS011;45321;53.200;5.814;2023-04-03T15:49:39;5.55;;;2.92;;
59504;SDS011;45321;53.200;5.814;2023-04-03T15:52:05;4.95;;;1.58;;
59504;SDS011;45321;53.200;5.814;2023-04-03T15:54:31;2.33;;;1.20;;
59504;SDS011;45321;53.200;5.814;2023-04-03T15:56:57;2.45;;;1.05;;
59504;SDS011;45321;53.200;5.814;2023-04-03T15:59:23;3.67;;;1.20;;
59504;SDS011;45321;53.200;5.814;2023-04-03T16:01:49;2.97;;;1.00;;
59504;SDS011;45321;53.200;5.814;2023-04-03T16:04:15;2.05;;;0.70;;
59504;SDS011;45321;53.200;5.814;2023-04-03T16:06:42;3.17;;;1.52;;
59504;SDS011;45321;53.200;5.814;2023-04-03T16:09:08;5.75;;;2.92;;
59504;SDS011;45321;53.200;5.814;2023-04-03T16:11:34;3.30;;;1.73;;
59504;SDS011;45321;53.200;5.814;2023-04-03T16:14:02;2.40;;;1.45;;
59504;SDS011;45321;53.200;5.814;2023-04-03T16:16:28;2.55;;;0.80;;
59504;SDS011;45321;53.200;5.814;2023-04-03T16:18:55;1.25;;;0.52;;
59504;SDS011;45321;53.200;5.814;2023-04-03T16:21:21;2.30;;;0.60;;
59504;SDS011;45321;53.200;5.814;2023-04-03T16:23:47;2.38;;;1.13;;
59504;SDS011;45321;53.200;5.814;2023-04-03T16:26:13;2.08;;;1.00;;
59504;SDS011;45321;53.200;5.814;2023-04-03T16:28:39;3.15;;;1.00;;
59504;SDS011;45321;53.200;5.814;2023-04-03T16:31:05;3.22;;;0.88;;
59504;SDS011;45321;53.200;5.814;2023-04-03T16:33:32;4.45;;;1.33;;
59504;SDS011;45321;53.200;5.814;2023-04-03T16:35:58;2.17;;;1.30;;
59504;SDS011;45321;53.200;5.814;2023-04-03T16:38:24;4.68;;;2.90;;
59504;SDS011;45321;53.200;5.814;2023-04-03T16:40:50;3.95;;;1.20;;
59504;SDS011;45321;53.200;5.814;2023-04-03T16:43:17;2.75;;;0.98;;
59504;SDS011;45321;53.200;5.814;2023-04-03T16:45:43;2.47;;;1.50;;
59504;SDS011;45321;53.200;5.814;2023-04-03T16:48:09;3.15;;;1.40;;
59504;SDS011;45321;53.200;5.814;2023-04-03T16:50:38;3.03;;;0.90;;